Time;durP1;ratioP1;P1;durP2;ratioP2;P2;SDS_P1;SDS_P2;PMS_P1;PMS_P2;Temp;Humidity;BMP_temperature;BMP_pressure;BME280_temperature;BME280_humidity;BME280_pressure;Samples;Min_cycle;Max_cycle;Signal;HPM_P1;HPM_P2
2022/03/16 00:00:09;;;;;;;35.38;26.90;;;;;;;;;;511124;28;1359;-74
2022/03/16 00:00:24;;;;;;;35.28;26.92;;;;;;;;;;512310;28;877;-74
2022/03/16 00:00:39;;;;;;;35.47;27.20;;;;;;;;;;513062;28;861;-73
2022/03/16 00:00:55;;;;;;;35.07;26.70;;;;;;;;;;511727;29;804;-73
2022/03/16 00:01:11;;;;;;;35.00;26.45;;;;;;;;;;511174;29;824;-73
2022/03/16 00:01:26;;;;;;;34.05;26.10;;;;;;;;;;511411;29;924;-73
2022/03/16 00:01:42;;;;;;;33.57;25.90;;;;;;;;;;509361;29;1354;-73
2022/03/16 00:01:57;;;;;;;34.33;25.98;;;;;;;;;;510260;29;1003;-74
2022/03/16 00:02:12;;;;;;;35.33;26.60;;;;;;;;;;509366;29;1357;-74
2022/03/16 00:02:27;;;;;;;35.00;26.53;;;;;;;;;;508891;29;1171;-74
2022/03/16 00:02:44;;;;;;;37.42;26.65;;;;;;;;;;509236;29;932;-74
2022/03/16 00:03:00;;;;;;;36.60;26.95;;;;;;;;;;509839;29;845;-74
2022/03/16 00:03:15;;;;;;;34.25;26.75;;;;;;;;;;509735;29;1517;-74
2022/03/16 00:03:30;;;;;;;40.40;27.93;;;;;;;;;;509360;29;1406;-74
2022/03/16 00:03:45;;;;;;;41.23;28.07;;;;;;;;;;509550;29;1419;-74
2022/03/16 00:04:01;;;;;;;46.10;27.20;;;;;;;;;;507139;29;1429;-73
2022/03/16 00:04:16;;;;;;;51.57;26.70;;;;;;;;;;508138;29;758;-74
2022/03/16 00:04:31;;;;;;;52.33;26.87;;;;;;;;;;509273;29;833;-74
2022/03/16 00:04:51;;;;;;;45.53;26.40;;;;;;;;;;507317;29;1264;-74
2022/03/16 00:05:07;;;;;;;38.45;25.92;;;;;;;;;;507712;29;1036;-73
2022/03/16 00:05:23;;;;;;;38.95;26.15;;;;;;;;;;506452;29;1208;-73
2022/03/16 00:05:38;;;;;;;33.38;24.95;;;;;;;;;;508472;29;1294;-73
2022/03/16 00:05:54;;;;;;;49.85;25.48;;;;;;;;;;510525;29;1045;-74
2022/03/16 00:06:09;;;;;;;49.50;24.87;;;;;;;;;;511323;29;793;-74
2022/03/16 00:06:24;;;;;;;39.90;24.67;;;;;;;;;;509464;29;1973;-73
2022/03/16 00:06:39;;;;;;;50.33;25.52;;;;;;;;;;508066;29;1414;-73
2022/03/16 00:06:55;;;;;;;56.90;25.70;;;;;;;;;;509583;29;1199;-74
2022/03/16 00:07:10;;;;;;;85.20;26.23;;;;;;;;;;509645;29;794;-74
2022/03/16 00:07:25;;;;;;;86.60;26.20;;;;;;;;;;509770;29;786;-73
2022/03/16 00:07:41;;;;;;;61.15;25.70;;;;;;;;;;509796;29;832;-73
2022/03/16 00:07:56;;;;;;;56.08;26.02;;;;;;;;;;510254;29;777;-74
2022/03/16 00:08:12;;;;;;;44.90;25.87;;;;;;;;;;509388;29;1330;-73
2022/03/16 00:08:28;;;;;;;38.53;25.07;;;;;;;;;;511140;29;800;-73
2022/03/16 00:08:44;;;;;;;32.40;24.77;;;;;;;;;;511910;29;875;-73
2022/03/16 00:08:59;;;;;;;37.40;25.90;;;;;;;;;;510259;29;1246;-73
2022/03/16 00:09:14;;;;;;;71.40;27.33;;;;;;;;;;510175;29;960;-73
2022/03/16 00:09:29;;;;;;;74.60;27.13;;;;;;;;;;508266;29;1440;-73
2022/03/16 00:09:45;;;;;;;48.17;26.73;;;;;;;;;;508247;29;905;-73
2022/03/16 00:10:01;;;;;;;40.03;26.30;;;;;;;;;;508207;29;1389;-73
2022/03/16 00:10:16;;;;;;;34.30;25.97;;;;;;;;;;510128;29;1142;-73
2022/03/16 00:10:31;;;;;;;37.40;25.90;;;;;;;;;;508383;29;1325;-74
2022/03/16 00:10:46;;;;;;;36.67;25.80;;;;;;;;;;506121;29;1330;-74
2022/03/16 00:11:02;;;;;;;34.83;25.97;;;;;;;;;;508045;29;1430;-74
2022/03/16 00:11:17;;;;;;;35.27;26.17;;;;;;;;;;507988;29;1283;-73
2022/03/16 00:11:32;;;;;;;35.58;26.70;;;;;;;;;;507273;29;1765;-73
2022/03/16 00:11:48;;;;;;;62.37;27.53;;;;;;;;;;506357;29;1003;-73
2022/03/16 00:12:03;;;;;;;77.40;27.95;;;;;;;;;;508030;29;1182;-73
2022/03/16 00:12:19;;;;;;;49.00;26.90;;;;;;;;;;508484;29;1046;-74
2022/03/16 00:12:35;;;;;;;46.55;26.88;;;;;;;;;;510087;29;1201;-74
2022/03/16 00:12:51;;;;;;;60.92;27.13;;;;;;;;;;509937;29;742;-74
2022/03/16 00:13:06;;;;;;;52.58;26.13;;;;;;;;;;510751;29;797;-74
2022/03/16 00:13:21;;;;;;;49.40;25.87;;;;;;;;;;511984;28;1568;-74
2022/03/16 00:13:37;;;;;;;45.90;25.20;;;;;;;;;;514045;28;925;-74
2022/03/16 00:13:52;;;;;;;40.70;24.40;;;;;;;;;;510314;29;1202;-73
2022/03/16 00:14:07;;;;;;;43.90;24.77;;;;;;;;;;510353;29;983;-73
2022/03/16 00:14:22;;;;;;;42.03;24.53;;;;;;;;;;511180;29;1170;-73
2022/03/16 00:14:38;;;;;;;42.30;24.93;;;;;;;;;;510220;29;727;-73
2022/03/16 00:14:53;;;;;;;36.97;25.20;;;;;;;;;;509527;29;840;-73
2022/03/16 00:15:09;;;;;;;31.13;24.27;;;;;;;;;;510162;29;599;-73
2022/03/16 00:15:25;;;;;;;31.73;24.45;;;;;;;;;;511289;29;872;-74
2022/03/16 00:15:41;;;;;;;35.38;24.48;;;;;;;;;;512450;28;789;-73
2022/03/16 00:15:56;;;;;;;38.17;24.67;;;;;;;;;;514031;28;714;-73
2022/03/16 00:16:11;;;;;;;36.37;25.30;;;;;;;;;;513298;28;737;-74
2022/03/16 00:16:26;;;;;;;34.87;25.67;;;;;;;;;;513987;28;1209;-73
2022/03/16 00:16:42;;;;;;;33.30;25.63;;;;;;;;;;512086;29;1230;-73
2022/03/16 00:16:57;;;;;;;33.43;25.43;;;;;;;;;;511763;28;900;-73
2022/03/16 00:17:13;;;;;;;37.37;25.77;;;;;;;;;;514002;28;809;-73
2022/03/16 00:17:28;;;;;;;50.28;26.42;;;;;;;;;;513934;28;849;-74
2022/03/16 00:17:43;;;;;;;68.03;27.47;;;;;;;;;;513809;28;1085;-74
2022/03/16 00:17:58;;;;;;;76.43;27.70;;;;;;;;;;512083;29;754;-74
2022/03/16 00:18:14;;;;;;;91.82;27.42;;;;;;;;;;509452;29;1652;-73
2022/03/16 00:18:29;;;;;;;100.30;27.53;;;;;;;;;;510264;29;1971;-73
2022/03/16 00:18:44;;;;;;;75.07;27.50;;;;;;;;;;510156;29;1142;-73
2022/03/16 00:18:59;;;;;;;49.73;26.90;;;;;;;;;;509900;29;1185;-73
2022/03/16 00:19:15;;;;;;;52.55;26.52;;;;;;;;;;510066;29;912;-73
2022/03/16 00:19:31;;;;;;;52.40;26.03;;;;;;;;;;509963;29;936;-73
2022/03/16 00:19:46;;;;;;;40.60;25.65;;;;;;;;;;506792;29;1380;-74
2022/03/16 00:20:03;;;;;;;45.80;26.47;;;;;;;;;;506217;29;809;-74
2022/03/16 00:20:18;;;;;;;50.20;26.52;;;;;;;;;;508857;29;1331;-73
2022/03/16 00:20:33;;;;;;;59.83;26.10;;;;;;;;;;509943;29;1130;-73
2022/03/16 00:20:49;;;;;;;53.22;25.42;;;;;;;;;;510438;29;1095;-73
2022/03/16 00:21:04;;;;;;;37.07;24.80;;;;;;;;;;509672;29;1398;-73
2022/03/16 00:21:19;;;;;;;34.90;24.67;;;;;;;;;;509796;29;754;-73
2022/03/16 00:21:35;;;;;;;35.78;25.60;;;;;;;;;;510037;29;940;-74
2022/03/16 00:21:50;;;;;;;34.47;25.70;;;;;;;;;;510022;29;750;-74
2022/03/16 00:22:05;;;;;;;37.67;25.80;;;;;;;;;;509989;29;786;-73
2022/03/16 00:22:20;;;;;;;40.15;26.08;;;;;;;;;;510242;29;1023;-74
2022/03/16 00:22:36;;;;;;;35.97;25.47;;;;;;;;;;510017;29;1349;-74
2022/03/16 00:22:51;;;;;;;34.50;25.10;;;;;;;;;;510123;29;865;-73
2022/03/16 00:23:06;;;;;;;35.45;25.15;;;;;;;;;;509736;29;1243;-74
2022/03/16 00:23:22;;;;;;;35.40;25.07;;;;;;;;;;510512;29;1486;-74
2022/03/16 00:23:37;;;;;;;35.10;25.10;;;;;;;;;;510168;29;814;-73
2022/03/16 00:23:52;;;;;;;34.83;25.00;;;;;;;;;;511396;29;1241;-73
2022/03/16 00:24:08;;;;;;;34.13;24.70;;;;;;;;;;511665;29;788;-73
2022/03/16 00:24:24;;;;;;;34.00;25.08;;;;;;;;;;510590;29;782;-73
2022/03/16 00:24:39;;;;;;;35.73;25.27;;;;;;;;;;509864;29;1192;-74
2022/03/16 00:24:54;;;;;;;34.13;24.85;;;;;;;;;;509596;29;845;-74
2022/03/16 00:25:10;;;;;;;33.00;24.60;;;;;;;;;;510014;29;778;-73
2022/03/16 00:25:26;;;;;;;32.83;24.35;;;;;;;;;;509114;29;1407;-74
2022/03/16 00:25:41;;;;;;;48.60;25.20;;;;;;;;;;509967;29;822;-73
2022/03/16 00:25:57;;;;;;;50.17;25.60;;;;;;;;;;509916;29;1244;-74
2022/03/16 00:26:12;;;;;;;53.08;25.23;;;;;;;;;;510384;29;825;-74
2022/03/16 00:26:28;;;;;;;54.70;24.90;;;;;;;;;;512259;29;1942;-73
2022/03/16 00:26:43;;;;;;;35.33;24.17;;;;;;;;;;510580;29;1151;-73
2022/03/16 00:26:59;;;;;;;34.07;23.73;;;;;;;;;;508062;29;1383;-73
2022/03/16 00:27:14;;;;;;;41.75;23.85;;;;;;;;;;508133;29;785;-73
2022/03/16 00:27:29;;;;;;;51.53;24.30;;;;;;;;;;507643;29;1259;-73
2022/03/16 00:27:45;;;;;;;66.70;24.43;;;;;;;;;;506423;29;1188;-73
2022/03/16 00:28:00;;;;;;;62.42;23.92;;;;;;;;;;508239;29;821;-74
2022/03/16 00:28:16;;;;;;;57.53;23.70;;;;;;;;;;508637;29;1554;-74
2022/03/16 00:28:31;;;;;;;66.73;24.63;;;;;;;;;;510321;29;738;-73
2022/03/16 00:28:46;;;;;;;51.03;24.13;;;;;;;;;;509502;29;905;-73
2022/03/16 00:29:02;;;;;;;40.23;23.70;;;;;;;;;;509904;29;821;-73
2022/03/16 00:29:17;;;;;;;39.95;23.70;;;;;;;;;;510877;29;1179;-74
2022/03/16 00:29:32;;;;;;;48.53;23.87;;;;;;;;;;511884;29;920;-73
2022/03/16 00:29:48;;;;;;;60.25;23.83;;;;;;;;;;511647;29;801;-73
2022/03/16 00:30:04;;;;;;;63.27;23.53;;;;;;;;;;511526;29;1075;-74
2022/03/16 00:30:19;;;;;;;56.67;23.92;;;;;;;;;;509752;29;1221;-73
2022/03/16 00:30:36;;;;;;;45.47;23.97;;;;;;;;;;506360;29;1164;-73
2022/03/16 00:30:52;;;;;;;62.70;23.95;;;;;;;;;;508295;29;852;-73
2022/03/16 00:31:07;;;;;;;58.37;23.60;;;;;;;;;;507996;29;1326;-74
2022/03/16 00:31:22;;;;;;;48.77;23.20;;;;;;;;;;508259;29;972;-73
2022/03/16 00:31:38;;;;;;;74.15;24.00;;;;;;;;;;508012;29;750;-73
2022/03/16 00:31:53;;;;;;;94.43;24.63;;;;;;;;;;506767;29;1366;-73
2022/03/16 00:32:08;;;;;;;80.40;24.40;;;;;;;;;;508706;29;750;-73
2022/03/16 00:32:23;;;;;;;47.28;23.40;;;;;;;;;;510407;29;758;-73
2022/03/16 00:32:39;;;;;;;52.13;23.07;;;;;;;;;;512122;29;1158;-73
2022/03/16 00:32:54;;;;;;;53.10;23.10;;;;;;;;;;512194;29;1306;-73
2022/03/16 00:33:11;;;;;;;39.73;23.03;;;;;;;;;;511630;28;1543;-73
2022/03/16 00:33:26;;;;;;;36.50;22.98;;;;;;;;;;512729;28;1256;-73
2022/03/16 00:33:41;;;;;;;33.47;23.17;;;;;;;;;;511338;29;1669;-73
2022/03/16 00:33:56;;;;;;;38.07;24.83;;;;;;;;;;508988;29;1369;-73
2022/03/16 00:34:12;;;;;;;45.40;25.27;;;;;;;;;;507812;29;1264;-73
2022/03/16 00:34:28;;;;;;;47.87;24.60;;;;;;;;;;506544;29;1008;-73
2022/03/16 00:34:43;;;;;;;54.75;25.17;;;;;;;;;;508042;29;1000;-73
2022/03/16 00:34:59;;;;;;;49.03;25.77;;;;;;;;;;505991;29;1115;-73
2022/03/16 00:35:14;;;;;;;45.20;25.73;;;;;;;;;;506058;29;1261;-73
2022/03/16 00:35:29;;;;;;;49.10;25.65;;;;;;;;;;504632;29;1405;-73
2022/03/16 00:35:45;;;;;;;48.73;25.73;;;;;;;;;;504136;29;1171;-73
2022/03/16 00:36:00;;;;;;;38.73;25.23;;;;;;;;;;504483;29;1333;-73
2022/03/16 00:36:17;;;;;;;35.57;24.93;;;;;;;;;;506231;29;858;-73
2022/03/16 00:36:32;;;;;;;38.50;25.30;;;;;;;;;;504432;29;1257;-73
2022/03/16 00:36:48;;;;;;;44.22;25.25;;;;;;;;;;504728;29;805;-73
2022/03/16 00:37:03;;;;;;;58.00;25.50;;;;;;;;;;506871;29;750;-73
2022/03/16 00:37:19;;;;;;;69.17;26.23;;;;;;;;;;508089;29;750;-73
2022/03/16 00:37:34;;;;;;;60.97;26.33;;;;;;;;;;508576;29;913;-73
2022/03/16 00:37:49;;;;;;;45.37;25.50;;;;;;;;;;508154;29;1249;-73
2022/03/16 00:38:05;;;;;;;36.07;24.70;;;;;;;;;;507904;29;1391;-73
2022/03/16 00:38:20;;;;;;;51.85;24.85;;;;;;;;;;508396;29;1521;-74
2022/03/16 00:38:35;;;;;;;52.43;24.90;;;;;;;;;;511521;29;881;-74
2022/03/16 00:38:51;;;;;;;47.63;24.57;;;;;;;;;;510497;29;738;-74
2022/03/16 00:39:06;;;;;;;62.63;25.13;;;;;;;;;;510221;29;865;-73
2022/03/16 00:39:21;;;;;;;75.27;25.07;;;;;;;;;;509259;29;1225;-73
2022/03/16 00:39:36;;;;;;;77.20;24.93;;;;;;;;;;507972;29;1265;-74
2022/03/16 00:39:52;;;;;;;59.50;25.00;;;;;;;;;;509324;29;1202;-74
2022/03/16 00:40:09;;;;;;;66.97;24.45;;;;;;;;;;510126;29;730;-73
2022/03/16 00:40:24;;;;;;;72.82;23.52;;;;;;;;;;509969;29;837;-74
2022/03/16 00:40:39;;;;;;;77.07;24.73;;;;;;;;;;510161;29;806;-73
2022/03/16 00:40:55;;;;;;;107.80;25.42;;;;;;;;;;508097;29;1165;-74
2022/03/16 00:41:12;;;;;;;90.97;23.67;;;;;;;;;;508330;29;821;-73
2022/03/16 00:41:28;;;;;;;57.13;23.10;;;;;;;;;;508541;29;1412;-73
2022/03/16 00:41:43;;;;;;;73.32;23.75;;;;;;;;;;510070;29;881;-73
2022/03/16 00:41:59;;;;;;;101.43;24.53;;;;;;;;;;509598;29;936;-73
2022/03/16 00:42:15;;;;;;;118.40;25.17;;;;;;;;;;510804;29;915;-74
2022/03/16 00:42:30;;;;;;;70.20;23.80;;;;;;;;;;511854;29;1157;-73
2022/03/16 00:42:46;;;;;;;70.63;23.30;;;;;;;;;;512787;28;725;-73
2022/03/16 00:43:01;;;;;;;111.63;24.63;;;;;;;;;;514258;28;848;-73
2022/03/16 00:43:16;;;;;;;114.73;25.20;;;;;;;;;;513058;28;1570;-73
2022/03/16 00:43:32;;;;;;;101.93;25.42;;;;;;;;;;512109;29;1336;-73
2022/03/16 00:43:47;;;;;;;82.37;24.87;;;;;;;;;;511057;29;785;-73
2022/03/16 00:44:04;;;;;;;60.83;23.87;;;;;;;;;;509292;29;820;-73
2022/03/16 00:44:19;;;;;;;60.80;24.27;;;;;;;;;;511181;29;769;-73
2022/03/16 00:44:35;;;;;;;56.28;23.77;;;;;;;;;;512138;29;788;-74
2022/03/16 00:44:51;;;;;;;42.78;22.20;;;;;;;;;;509847;29;1287;-73
2022/03/16 00:45:06;;;;;;;57.30;23.27;;;;;;;;;;510130;29;746;-73
2022/03/16 00:45:22;;;;;;;63.45;23.58;;;;;;;;;;510583;29;741;-74
2022/03/16 00:45:37;;;;;;;67.00;22.53;;;;;;;;;;509962;29;1321;-73
2022/03/16 00:45:52;;;;;;;107.27;23.73;;;;;;;;;;510059;29;1272;-73
2022/03/16 00:46:07;;;;;;;145.57;24.73;;;;;;;;;;509588;29;833;-73
2022/03/16 00:46:23;;;;;;;138.10;24.50;;;;;;;;;;507797;29;1215;-73
2022/03/16 00:46:38;;;;;;;95.67;23.87;;;;;;;;;;508235;29;1915;-73
2022/03/16 00:46:53;;;;;;;79.67;23.00;;;;;;;;;;510248;29;1014;-73
2022/03/16 00:47:09;;;;;;;92.82;22.90;;;;;;;;;;510012;29;1159;-73
2022/03/16 00:47:24;;;;;;;102.60;22.77;;;;;;;;;;508327;29;1258;-74
2022/03/16 00:47:39;;;;;;;66.93;22.10;;;;;;;;;;510455;29;1197;-74
2022/03/16 00:47:54;;;;;;;54.90;22.52;;;;;;;;;;512231;29;837;-73
2022/03/16 00:48:10;;;;;;;64.03;22.67;;;;;;;;;;509466;29;1438;-73
2022/03/16 00:48:25;;;;;;;44.20;21.90;;;;;;;;;;510653;29;986;-73
2022/03/16 00:48:40;;;;;;;35.05;21.70;;;;;;;;;;511966;29;852;-73
2022/03/16 00:48:56;;;;;;;37.00;21.57;;;;;;;;;;510061;29;928;-73
2022/03/16 00:49:11;;;;;;;35.10;21.30;;;;;;;;;;510387;29;714;-74
2022/03/16 00:49:26;;;;;;;44.42;21.38;;;;;;;;;;511975;29;1345;-74
2022/03/16 00:49:41;;;;;;;64.77;21.43;;;;;;;;;;509542;29;1202;-72
2022/03/16 00:49:57;;;;;;;67.73;21.70;;;;;;;;;;505948;29;1155;-72
2022/03/16 00:50:12;;;;;;;91.33;22.67;;;;;;;;;;508070;29;987;-72
2022/03/16 00:50:27;;;;;;;103.88;23.10;;;;;;;;;;508029;29;849;-72
2022/03/16 00:50:43;;;;;;;94.53;22.83;;;;;;;;;;508264;29;770;-72
2022/03/16 00:50:58;;;;;;;104.13;23.30;;;;;;;;;;508157;29;1133;-72
2022/03/16 00:51:13;;;;;;;110.20;24.02;;;;;;;;;;506012;29;1208;-72
2022/03/16 00:51:29;;;;;;;93.93;23.17;;;;;;;;;;506228;29;789;-73
2022/03/16 00:51:44;;;;;;;93.80;23.85;;;;;;;;;;508310;29;884;-74
2022/03/16 00:52:00;;;;;;;128.97;25.37;;;;;;;;;;510071;29;1171;-74
2022/03/16 00:52:16;;;;;;;96.43;24.02;;;;;;;;;;510072;29;824;-74
2022/03/16 00:52:31;;;;;;;67.18;23.23;;;;;;;;;;507940;29;1304;-74
2022/03/16 00:52:46;;;;;;;64.17;22.67;;;;;;;;;;506294;29;1187;-74
2022/03/16 00:53:01;;;;;;;71.80;23.40;;;;;;;;;;504546;29;1160;-74
2022/03/16 00:53:17;;;;;;;76.07;24.03;;;;;;;;;;506752;29;1456;-74
2022/03/16 00:53:34;;;;;;;72.57;24.37;;;;;;;;;;506250;29;1206;-74
2022/03/16 00:53:49;;;;;;;77.15;24.35;;;;;;;;;;508150;29;1935;-74
2022/03/16 00:54:05;;;;;;;64.40;23.45;;;;;;;;;;507698;29;773;-74
2022/03/16 00:54:20;;;;;;;82.17;24.47;;;;;;;;;;508053;29;801;-74
2022/03/16 00:54:36;;;;;;;66.88;24.00;;;;;;;;;;508358;29;976;-74
2022/03/16 00:54:51;;;;;;;74.27;23.63;;;;;;;;;;510309;29;857;-73
2022/03/16 00:55:07;;;;;;;70.47;23.50;;;;;;;;;;512118;29;828;-74
2022/03/16 00:55:22;;;;;;;52.85;22.88;;;;;;;;;;513042;28;1038;-74
2022/03/16 00:55:38;;;;;;;80.20;23.90;;;;;;;;;;511927;29;1387;-74
2022/03/16 00:55:53;;;;;;;93.43;25.53;;;;;;;;;;512085;29;817;-74
2022/03/16 00:56:09;;;;;;;97.47;25.77;;;;;;;;;;511839;29;757;-74
2022/03/16 00:56:24;;;;;;;89.40;24.63;;;;;;;;;;511907;29;773;-74
2022/03/16 00:56:39;;;;;;;61.13;24.13;;;;;;;;;;511652;29;792;-74
2022/03/16 00:56:54;;;;;;;44.93;24.27;;;;;;;;;;512010;29;912;-74
2022/03/16 00:57:10;;;;;;;93.30;25.15;;;;;;;;;;513550;28;766;-74
2022/03/16 00:57:25;;;;;;;106.07;26.03;;;;;;;;;;513782;28;912;-74
2022/03/16 00:57:40;;;;;;;81.83;26.00;;;;;;;;;;512080;29;722;-74
2022/03/16 00:57:55;;;;;;;96.30;26.15;;;;;;;;;;512266;28;815;-74
2022/03/16 00:58:11;;;;;;;90.87;25.83;;;;;;;;;;511979;28;1531;-74
2022/03/16 00:58:26;;;;;;;76.03;25.63;;;;;;;;;;512316;28;947;-73
2022/03/16 00:58:41;;;;;;;71.90;25.13;;;;;;;;;;513774;28;1268;-74
2022/03/16 00:58:57;;;;;;;70.90;24.83;;;;;;;;;;514035;28;1540;-74
2022/03/16 00:59:12;;;;;;;62.50;25.07;;;;;;;;;;513838;28;758;-74
2022/03/16 00:59:27;;;;;;;43.63;24.70;;;;;;;;;;514050;28;928;-74
2022/03/16 00:59:42;;;;;;;42.08;24.83;;;;;;;;;;512163;29;1294;-74
2022/03/16 00:59:58;;;;;;;39.27;24.70;;;;;;;;;;511717;29;1277;-74
2022/03/16 01:00:14;;;;;;;40.55;24.27;;;;;;;;;;512196;28;761;-74
2022/03/16 01:00:29;;;;;;;46.07;24.70;;;;;;;;;;512191;29;727;-74
2022/03/16 01:00:44;;;;;;;51.28;25.48;;;;;;;;;;508540;29;1209;-74
2022/03/16 01:01:00;;;;;;;67.60;26.20;;;;;;;;;;509888;29;917;-74
2022/03/16 01:01:15;;;;;;;62.38;25.80;;;;;;;;;;509881;29;849;-74
2022/03/16 01:01:31;;;;;;;40.50;25.10;;;;;;;;;;510002;29;793;-74
2022/03/16 01:01:46;;;;;;;46.10;25.58;;;;;;;;;;510404;29;805;-74
2022/03/16 01:02:02;;;;;;;41.87;24.90;;;;;;;;;;509895;29;1232;-74
2022/03/16 01:02:18;;;;;;;32.95;23.73;;;;;;;;;;509876;29;885;-74
2022/03/16 01:02:33;;;;;;;34.55;24.33;;;;;;;;;;510245;29;1280;-74
2022/03/16 01:02:48;;;;;;;44.33;25.30;;;;;;;;;;511704;29;746;-74
2022/03/16 01:03:03;;;;;;;50.37;25.53;;;;;;;;;;511889;29;730;-74
2022/03/16 01:03:19;;;;;;;49.00;25.33;;;;;;;;;;511994;28;1532;-74
2022/03/16 01:03:35;;;;;;;63.42;26.05;;;;;;;;;;511175;29;1150;-74
2022/03/16 01:03:50;;;;;;;88.35;27.48;;;;;;;;;;509693;29;1439;-74
2022/03/16 01:04:05;;;;;;;74.03;26.57;;;;;;;;;;509559;29;734;-74
2022/03/16 01:04:21;;;;;;;52.97;25.73;;;;;;;;;;508351;29;1296;-74
2022/03/16 01:04:36;;;;;;;57.72;26.50;;;;;;;;;;510070;29;857;-74
2022/03/16 01:04:51;;;;;;;58.50;26.63;;;;;;;;;;507385;29;1271;-74
2022/03/16 01:05:07;;;;;;;53.23;26.60;;;;;;;;;;508110;29;776;-74
2022/03/16 01:05:22;;;;;;;48.17;26.35;;;;;;;;;;508528;29;1265;-74
2022/03/16 01:05:38;;;;;;;43.07;25.73;;;;;;;;;;510366;29;1188;-74
2022/03/16 01:05:53;;;;;;;41.20;26.03;;;;;;;;;;512070;29;723;-74
2022/03/16 01:06:20;;;;;;;49.77;26.50;;;;;;;;;;512114;28;840;-74
2022/03/16 01:06:35;;;;;;;42.55;25.42;;;;;;;;;;511822;29;1907;-74
2022/03/16 01:06:53;;;;;;;35.60;25.23;;;;;;;;;;509920;29;1307;-74
2022/03/16 01:07:08;;;;;;;38.25;25.23;;;;;;;;;;507820;29;1314;-74
2022/03/16 01:07:23;;;;;;;42.13;25.33;;;;;;;;;;504607;29;1349;-74
2022/03/16 01:07:39;;;;;;;42.85;25.60;;;;;;;;;;508019;29;1496;-74
2022/03/16 01:07:54;;;;;;;38.43;25.43;;;;;;;;;;506313;29;1385;-74
2022/03/16 01:08:09;;;;;;;37.73;25.77;;;;;;;;;;506018;29;1404;-73
2022/03/16 01:08:24;;;;;;;39.60;26.17;;;;;;;;;;507044;29;1769;-74
2022/03/16 01:08:40;;;;;;;38.58;25.70;;;;;;;;;;510516;29;1174;-74
2022/03/16 01:08:55;;;;;;;38.57;25.73;;;;;;;;;;510073;29;1386;-74
2022/03/16 01:09:10;;;;;;;45.60;26.33;;;;;;;;;;511950;28;864;-74
2022/03/16 01:09:26;;;;;;;44.03;26.33;;;;;;;;;;514053;28;785;-73
2022/03/16 01:09:41;;;;;;;40.33;26.63;;;;;;;;;;512066;29;1197;-74
2022/03/16 01:09:56;;;;;;;47.20;27.10;;;;;;;;;;511608;29;656;-74
2022/03/16 01:10:12;;;;;;;48.67;26.90;;;;;;;;;;509959;29;1122;-74
2022/03/16 01:10:28;;;;;;;46.10;26.88;;;;;;;;;;510163;29;789;-74
2022/03/16 01:10:43;;;;;;;45.17;26.50;;;;;;;;;;510514;29;1332;-74
2022/03/16 01:10:58;;;;;;;43.70;26.13;;;;;;;;;;512136;29;828;-74
2022/03/16 01:11:14;;;;;;;43.63;25.35;;;;;;;;;;509317;29;1246;-74
2022/03/16 01:11:29;;;;;;;46.50;25.70;;;;;;;;;;509794;29;1272;-74
2022/03/16 01:11:44;;;;;;;45.75;27.33;;;;;;;;;;509834;29;1522;-74
2022/03/16 01:12:02;;;;;;;41.53;27.27;;;;;;;;;;509830;29;1173;-73
2022/03/16 01:12:17;;;;;;;43.72;26.30;;;;;;;;;;509880;29;774;-74
2022/03/16 01:12:32;;;;;;;43.15;25.92;;;;;;;;;;509839;29;821;-74
2022/03/16 01:12:48;;;;;;;47.47;26.03;;;;;;;;;;509856;29;1175;-74
2022/03/16 01:13:03;;;;;;;48.83;25.83;;;;;;;;;;509837;29;1198;-74
2022/03/16 01:13:19;;;;;;;39.92;25.15;;;;;;;;;;510408;29;1488;-74
2022/03/16 01:13:35;;;;;;;40.08;25.30;;;;;;;;;;512138;29;765;-73
2022/03/16 01:13:50;;;;;;;49.10;25.67;;;;;;;;;;510130;29;1293;-73
2022/03/16 01:14:05;;;;;;;45.08;24.92;;;;;;;;;;509708;29;586;-74
2022/03/16 01:14:21;;;;;;;44.00;25.07;;;;;;;;;;510156;29;858;-74
2022/03/16 01:14:36;;;;;;;51.67;25.67;;;;;;;;;;508467;29;1234;-74
2022/03/16 01:14:52;;;;;;;40.67;24.95;;;;;;;;;;510253;29;1162;-74
2022/03/16 01:15:07;;;;;;;41.53;25.30;;;;;;;;;;512209;29;770;-74
2022/03/16 01:15:23;;;;;;;45.50;25.90;;;;;;;;;;509624;29;1242;-74
2022/03/16 01:15:38;;;;;;;39.53;25.50;;;;;;;;;;510060;29;790;-74
2022/03/16 01:15:53;;;;;;;45.23;26.13;;;;;;;;;;509858;29;1460;-74
2022/03/16 01:16:09;;;;;;;62.77;26.53;;;;;;;;;;509747;29;809;-74
2022/03/16 01:16:24;;;;;;;72.05;26.45;;;;;;;;;;508022;29;1288;-74
2022/03/16 01:16:40;;;;;;;56.67;25.67;;;;;;;;;;506522;29;1227;-74
2022/03/16 01:16:55;;;;;;;41.50;24.42;;;;;;;;;;508625;29;1467;-74
2022/03/16 01:17:10;;;;;;;53.70;25.00;;;;;;;;;;506579;29;1381;-73
2022/03/16 01:17:26;;;;;;;63.53;25.43;;;;;;;;;;509022;29;1246;-74
2022/03/16 01:17:41;;;;;;;60.08;24.60;;;;;;;;;;509957;29;856;-74
2022/03/16 01:17:56;;;;;;;56.13;24.17;;;;;;;;;;507772;29;1187;-74
2022/03/16 01:18:12;;;;;;;49.40;23.63;;;;;;;;;;507213;29;1498;-74
2022/03/16 01:18:28;;;;;;;54.38;23.90;;;;;;;;;;506647;29;1207;-74
2022/03/16 01:18:43;;;;;;;66.05;24.58;;;;;;;;;;507836;29;793;-74
2022/03/16 01:18:58;;;;;;;55.07;23.97;;;;;;;;;;505916;29;1190;-74
2022/03/16 01:19:14;;;;;;;51.25;24.42;;;;;;;;;;505377;29;1429;-74
2022/03/16 01:19:31;;;;;;;55.20;25.17;;;;;;;;;;503363;29;1472;-74
2022/03/16 01:19:47;;;;;;;45.08;24.92;;;;;;;;;;506812;29;1488;-74
2022/03/16 01:20:02;;;;;;;45.40;25.30;;;;;;;;;;507746;29;1178;-73
2022/03/16 01:20:18;;;;;;;43.78;25.58;;;;;;;;;;508081;29;1451;-74
2022/03/16 01:20:34;;;;;;;43.60;26.10;;;;;;;;;;508326;29;821;-74
2022/03/16 01:20:49;;;;;;;45.63;26.25;;;;;;;;;;508651;29;936;-74
2022/03/16 01:21:05;;;;;;;42.83;25.83;;;;;;;;;;510523;29;818;-73
2022/03/16 01:21:20;;;;;;;43.38;26.20;;;;;;;;;;511151;29;1744;-73
2022/03/16 01:21:35;;;;;;;45.27;26.67;;;;;;;;;;509675;29;1472;-73
2022/03/16 01:21:52;;;;;;;44.13;26.02;;;;;;;;;;512179;28;1498;-74
2022/03/16 01:22:08;;;;;;;42.63;26.05;;;;;;;;;;512035;29;899;-73
2022/03/16 01:22:23;;;;;;;43.40;26.43;;;;;;;;;;512003;29;928;-74
2022/03/16 01:22:38;;;;;;;42.13;26.40;;;;;;;;;;511835;29;1027;-74
2022/03/16 01:22:53;;;;;;;45.97;26.83;;;;;;;;;;509995;29;1294;-74
2022/03/16 01:23:09;;;;;;;47.13;26.43;;;;;;;;;;509853;29;1505;-74
2022/03/16 01:23:24;;;;;;;48.37;26.73;;;;;;;;;;508990;29;1450;-74
2022/03/16 01:23:39;;;;;;;50.28;27.48;;;;;;;;;;505647;29;1203;-74
2022/03/16 01:23:55;;;;;;;50.53;26.63;;;;;;;;;;507676;29;814;-74
2022/03/16 01:24:10;;;;;;;50.63;25.20;;;;;;;;;;507752;29;825;-73
2022/03/16 01:24:25;;;;;;;45.63;24.95;;;;;;;;;;506203;29;1199;-74
2022/03/16 01:24:41;;;;;;;50.10;27.23;;;;;;;;;;507946;29;1179;-74
2022/03/16 01:24:56;;;;;;;50.00;27.70;;;;;;;;;;509483;29;956;-74
2022/03/16 01:25:12;;;;;;;43.30;26.27;;;;;;;;;;510206;29;1472;-74
2022/03/16 01:25:27;;;;;;;46.80;26.80;;;;;;;;;;512107;28;924;-74
2022/03/16 01:25:42;;;;;;;47.95;26.33;;;;;;;;;;511570;29;1177;-74
2022/03/16 01:25:58;;;;;;;43.23;25.30;;;;;;;;;;509845;29;1123;-74
2022/03/16 01:26:13;;;;;;;46.63;26.80;;;;;;;;;;509222;29;1449;-74
2022/03/16 01:26:28;;;;;;;55.50;28.15;;;;;;;;;;509885;29;1911;-74
2022/03/16 01:26:43;;;;;;;56.77;33.67;;;;;;;;;;512066;29;1365;-74
2022/03/16 01:26:59;;;;;;;57.00;37.10;;;;;;;;;;509893;29;1467;-74
2022/03/16 01:27:14;;;;;;;59.22;32.83;;;;;;;;;;508091;29;937;-74
2022/03/16 01:27:30;;;;;;;53.67;29.33;;;;;;;;;;506180;29;1167;-73
2022/03/16 01:27:45;;;;;;;48.87;28.80;;;;;;;;;;507909;29;894;-73
2022/03/16 01:28:00;;;;;;;52.72;29.67;;;;;;;;;;509694;29;1316;-74
2022/03/16 01:28:15;;;;;;;53.17;28.20;;;;;;;;;;507074;29;1491;-74
2022/03/16 01:28:31;;;;;;;48.30;26.50;;;;;;;;;;507158;29;849;-74
2022/03/16 01:28:47;;;;;;;45.67;28.42;;;;;;;;;;507050;29;1281;-74
2022/03/16 01:29:02;;;;;;;45.22;30.27;;;;;;;;;;506222;29;1259;-74
2022/03/16 01:29:17;;;;;;;42.67;29.17;;;;;;;;;;506804;29;731;-74
2022/03/16 01:29:33;;;;;;;43.13;28.70;;;;;;;;;;510071;29;888;-74
2022/03/16 01:29:48;;;;;;;43.28;28.38;;;;;;;;;;509582;29;868;-73
2022/03/16 01:30:04;;;;;;;41.40;27.17;;;;;;;;;;511192;29;1177;-73
2022/03/16 01:30:19;;;;;;;41.78;26.35;;;;;;;;;;510044;29;1298;-74
2022/03/16 01:30:35;;;;;;;42.83;26.13;;;;;;;;;;510286;29;746;-73
2022/03/16 01:30:50;;;;;;;43.33;26.27;;;;;;;;;;510306;29;1249;-73
2022/03/16 01:31:05;;;;;;;43.63;26.27;;;;;;;;;;509995;29;1155;-73
2022/03/16 01:31:21;;;;;;;41.93;25.57;;;;;;;;;;509993;29;806;-74
2022/03/16 01:31:36;;;;;;;38.80;25.15;;;;;;;;;;509982;29;1403;-74
2022/03/16 01:31:53;;;;;;;44.75;25.67;;;;;;;;;;507837;29;1227;-74
2022/03/16 01:32:08;;;;;;;50.22;25.95;;;;;;;;;;505970;29;1259;-73
2022/03/16 01:32:23;;;;;;;53.57;28.87;;;;;;;;;;505845;29;743;-73
2022/03/16 01:32:39;;;;;;;51.08;30.88;;;;;;;;;;506528;29;750;-73
2022/03/16 01:32:54;;;;;;;48.15;30.05;;;;;;;;;;508566;29;731;-73
2022/03/16 01:33:10;;;;;;;50.07;29.30;;;;;;;;;;509451;29;1518;-73
2022/03/16 01:33:25;;;;;;;45.83;27.43;;;;;;;;;;508863;29;843;-73